sensor_id;sensor_type;location;lat;lon;timestamp;P1;durP1;ratioP1;P2;durP2;ratioP2
9729;SDS011;4904;49.152;11.004;2022-12-18T00:02:02;36.43;;;20.60;;
9729;SDS011;4904;49.152;11.004;2022-12-18T00:04:29;37.47;;;21.97;;
9729;SDS011;4904;49.152;11.004;2022-12-18T00:06:56;41.63;;;23.63;;
9729;SDS011;4904;49.152;11.004;2022-12-18T00:09:23;45.90;;;23.90;;
9729;SDS011;4904;49.152;11.004;2022-12-18T00:11:51;43.80;;;24.20;;
9729;SDS011;4904;49.152;11.004;2022-12-18T00:14:18;45.03;;;25.20;;
9729;SDS011;4904;49.152;11.004;2022-12-18T00:16:45;43.97;;;23.87;;
9729;SDS011;4904;49.152;11.004;2022-12-18T00:19:12;42.50;;;23.33;;
9729;SDS011;4904;49.152;11.004;2022-12-18T00:21:40;43.77;;;24.40;;
9729;SDS011;4904;49.152;11.004;2022-12-18T00:24:08;38.60;;;22.93;;
9729;SDS011;4904;49.152;11.004;2022-12-18T00:26:35;42.57;;;22.87;;
9729;SDS011;4904;49.152;11.004;2022-12-18T00:29:06;40.83;;;22.17;;
9729;SDS011;4904;49.152;11.004;2022-12-18T00:31:36;38.57;;;21.80;;
9729;SDS011;4904;49.152;11.004;2022-12-18T00:34:03;39.30;;;22.00;;
9729;SDS011;4904;49.152;11.004;2022-12-18T00:36:31;42.77;;;23.30;;
9729;SDS011;4904;49.152;11.004;2022-12-18T00:39:00;43.03;;;23.10;;
9729;SDS011;4904;49.152;11.004;2022-12-18T00:41:28;38.93;;;21.17;;
9729;SDS011;4904;49.152;11.004;2022-12-18T00:44:15;43.60;;;23.57;;
9729;SDS011;4904;49.152;11.004;2022-12-18T00:46:43;38.40;;;21.87;;
9729;SDS011;4904;49.152;11.004;2022-12-18T00:49:14;37.50;;;22.93;;
9729;SDS011;4904;49.152;11.004;2022-12-18T00:51:41;40.87;;;23.67;;
9729;SDS011;4904;49.152;11.004;2022-12-18T00:54:08;42.87;;;24.10;;
9729;SDS011;4904;49.152;11.004;2022-12-18T00:56:35;46.80;;;24.23;;
9729;SDS011;4904;49.152;11.004;2022-12-18T00:59:03;42.47;;;23.83;;
9729;SDS011;4904;49.152;11.004;2022-12-18T01:01:31;39.37;;;21.97;;
9729;SDS011;4904;49.152;11.004;2022-12-18T01:03:59;38.37;;;21.07;;
9729;SDS011;4904;49.152;11.004;2022-12-18T01:06:26;37.63;;;21.77;;
9729;SDS011;4904;49.152;11.004;2022-12-18T01:08:53;39.87;;;22.27;;
9729;SDS011;4904;49.152;11.004;2022-12-18T01:11:21;40.23;;;22.30;;
9729;SDS011;4904;49.152;11.004;2022-12-18T01:13:48;33.87;;;20.63;;
9729;SDS011;4904;49.152;11.004;2022-12-18T01:16:16;38.07;;;22.57;;
9729;SDS011;4904;49.152;11.004;2022-12-18T01:18:44;35.07;;;20.73;;
9729;SDS011;4904;49.152;11.004;2022-12-18T01:21:13;34.80;;;20.17;;
9729;SDS011;4904;49.152;11.004;2022-12-18T01:23:44;37.57;;;21.00;;
9729;SDS011;4904;49.152;11.004;2022-12-18T01:26:12;37.27;;;22.33;;
9729;SDS011;4904;49.152;11.004;2022-12-18T01:28:40;38.87;;;22.40;;
9729;SDS011;4904;49.152;11.004;2022-12-18T01:31:09;40.70;;;22.37;;
9729;SDS011;4904;49.152;11.004;2022-12-18T01:33:37;41.20;;;21.37;;
9729;SDS011;4904;49.152;11.004;2022-12-18T01:36:05;38.00;;;21.57;;
9729;SDS011;4904;49.152;11.004;2022-12-18T01:38:33;41.73;;;22.00;;
9729;SDS011;4904;49.152;11.004;2022-12-18T01:40:59;36.87;;;21.23;;
9729;SDS011;4904;49.152;11.004;2022-12-18T01:43:47;32.37;;;20.60;;
9729;SDS011;4904;49.152;11.004;2022-12-18T01:46:16;36.77;;;21.73;;
9729;SDS011;4904;49.152;11.004;2022-12-18T01:48:46;40.43;;;21.00;;
9729;SDS011;4904;49.152;11.004;2022-12-18T01:51:17;37.27;;;21.50;;
9729;SDS011;4904;49.152;11.004;2022-12-18T01:53:44;36.30;;;20.37;;
9729;SDS011;4904;49.152;11.004;2022-12-18T01:56:14;36.57;;;21.23;;
9729;SDS011;4904;49.152;11.004;2022-12-18T01:58:46;38.33;;;21.90;;
9729;SDS011;4904;49.152;11.004;2022-12-18T02:01:20;34.30;;;20.23;;
9729;SDS011;4904;49.152;11.004;2022-12-18T02:03:47;33.43;;;20.67;;
9729;SDS011;4904;49.152;11.004;2022-12-18T02:06:15;36.60;;;20.50;;
9729;SDS011;4904;49.152;11.004;2022-12-18T02:08:49;35.90;;;19.43;;
9729;SDS011;4904;49.152;11.004;2022-12-18T02:11:26;38.90;;;21.30;;
9729;SDS011;4904;49.152;11.004;2022-12-18T02:14:04;36.57;;;20.57;;
9729;SDS011;4904;49.152;11.004;2022-12-18T02:16:43;33.57;;;21.43;;
9729;SDS011;4904;49.152;11.004;2022-12-18T02:19:21;34.57;;;20.17;;
9729;SDS011;4904;49.152;11.004;2022-12-18T02:22:07;35.70;;;20.00;;
9729;SDS011;4904;49.152;11.004;2022-12-18T02:24:50;36.67;;;21.27;;
9729;SDS011;4904;49.152;11.004;2022-12-18T02:27:25;39.30;;;21.03;;
9729;SDS011;4904;49.152;11.004;2022-12-18T02:29:55;36.43;;;20.73;;
9729;SDS011;4904;49.152;11.004;2022-12-18T02:32:26;39.90;;;21.07;;
9729;SDS011;4904;49.152;11.004;2022-12-18T02:34:56;38.67;;;22.33;;
9729;SDS011;4904;49.152;11.004;2022-12-18T02:37:25;34.00;;;20.10;;
9729;SDS011;4904;49.152;11.004;2022-12-18T02:39:52;34.07;;;20.47;;
9729;SDS011;4904;49.152;11.004;2022-12-18T02:42:22;33.53;;;19.67;;
9729;SDS011;4904;49.152;11.004;2022-12-18T02:44:55;36.57;;;20.27;;
9729;SDS011;4904;49.152;11.004;2022-12-18T02:47:22;34.93;;;19.93;;
9729;SDS011;4904;49.152;11.004;2022-12-18T02:49:53;31.23;;;19.87;;
9729;SDS011;4904;49.152;11.004;2022-12-18T02:52:28;35.93;;;20.47;;
9729;SDS011;4904;49.152;11.004;2022-12-18T02:55:05;34.97;;;20.50;;
9729;SDS011;4904;49.152;11.004;2022-12-18T02:57:44;31.53;;;19.00;;
9729;SDS011;4904;49.152;11.004;2022-12-18T03:00:16;34.67;;;19.33;;
9729;SDS011;4904;49.152;11.004;2022-12-18T03:02:46;33.60;;;19.60;;
9729;SDS011;4904;49.152;11.004;2022-12-18T03:05:21;34.60;;;19.43;;
9729;SDS011;4904;49.152;11.004;2022-12-18T03:07:53;36.00;;;20.60;;
9729;SDS011;4904;49.152;11.004;2022-12-18T03:10:25;34.37;;;20.33;;
9729;SDS011;4904;49.152;11.004;2022-12-18T03:12:56;34.13;;;20.27;;
9729;SDS011;4904;49.152;11.004;2022-12-18T03:15:28;36.17;;;21.13;;
9729;SDS011;4904;49.152;11.004;2022-12-18T03:17:59;35.53;;;21.13;;
9729;SDS011;4904;49.152;11.004;2022-12-18T03:20:31;37.30;;;21.30;;
9729;SDS011;4904;49.152;11.004;2022-12-18T03:23:02;33.80;;;20.17;;
9729;SDS011;4904;49.152;11.004;2022-12-18T03:25:33;38.37;;;21.37;;
9729;SDS011;4904;49.152;11.004;2022-12-18T03:28:06;34.53;;;21.73;;
9729;SDS011;4904;49.152;11.004;2022-12-18T03:30:34;35.33;;;20.77;;
9729;SDS011;4904;49.152;11.004;2022-12-18T03:33:05;35.87;;;21.57;;
9729;SDS011;4904;49.152;11.004;2022-12-18T03:35:37;33.27;;;18.33;;
9729;SDS011;4904;49.152;11.004;2022-12-18T03:38:07;32.47;;;19.50;;
9729;SDS011;4904;49.152;11.004;2022-12-18T03:40:37;35.37;;;19.00;;
9729;SDS011;4904;49.152;11.004;2022-12-18T03:43:15;29.33;;;17.20;;
9729;SDS011;4904;49.152;11.004;2022-12-18T03:45:48;31.13;;;18.73;;
9729;SDS011;4904;49.152;11.004;2022-12-18T03:48:19;31.50;;;17.73;;
9729;SDS011;4904;49.152;11.004;2022-12-18T03:50:53;28.53;;;18.20;;
9729;SDS011;4904;49.152;11.004;2022-12-18T03:53:25;33.67;;;19.07;;
9729;SDS011;4904;49.152;11.004;2022-12-18T03:55:59;34.70;;;20.30;;
9729;SDS011;4904;49.152;11.004;2022-12-18T03:58:29;36.37;;;21.07;;
9729;SDS011;4904;49.152;11.004;2022-12-18T04:00:59;28.63;;;16.93;;
9729;SDS011;4904;49.152;11.004;2022-12-18T04:03:29;30.77;;;18.87;;
9729;SDS011;4904;49.152;11.004;2022-12-18T04:05:58;31.50;;;17.47;;
9729;SDS011;4904;49.152;11.004;2022-12-18T04:08:27;33.67;;;18.63;;
9729;SDS011;4904;49.152;11.004;2022-12-18T04:10:54;29.70;;;17.73;;
9729;SDS011;4904;49.152;11.004;2022-12-18T04:13:21;34.23;;;18.03;;
9729;SDS011;4904;49.152;11.004;2022-12-18T04:15:50;31.10;;;18.20;;
9729;SDS011;4904;49.152;11.004;2022-12-18T04:18:17;28.73;;;16.93;;
9729;SDS011;4904;49.152;11.004;2022-12-18T04:20:44;32.10;;;18.17;;
9729;SDS011;4904;49.152;11.004;2022-12-18T04:23:11;29.87;;;17.07;;
9729;SDS011;4904;49.152;11.004;2022-12-18T04:25:38;29.83;;;15.57;;
9729;SDS011;4904;49.152;11.004;2022-12-18T04:28:05;30.37;;;17.60;;
9729;SDS011;4904;49.152;11.004;2022-12-18T04:30:31;29.80;;;16.47;;
9729;SDS011;4904;49.152;11.004;2022-12-18T04:32:59;29.57;;;16.37;;
9729;SDS011;4904;49.152;11.004;2022-12-18T04:35:26;29.30;;;16.30;;
9729;SDS011;4904;49.152;11.004;2022-12-18T04:37:53;31.77;;;16.03;;
9729;SDS011;4904;49.152;11.004;2022-12-18T04:40:20;29.27;;;16.40;;
9729;SDS011;4904;49.152;11.004;2022-12-18T04:42:47;27.80;;;16.30;;
9729;SDS011;4904;49.152;11.004;2022-12-18T04:45:14;27.50;;;15.73;;
9729;SDS011;4904;49.152;11.004;2022-12-18T04:47:40;26.03;;;15.67;;
9729;SDS011;4904;49.152;11.004;2022-12-18T04:50:09;30.10;;;15.47;;
9729;SDS011;4904;49.152;11.004;2022-12-18T04:52:35;27.33;;;15.43;;
9729;SDS011;4904;49.152;11.004;2022-12-18T04:55:03;30.30;;;15.60;;
9729;SDS011;4904;49.152;11.004;2022-12-18T04:57:30;27.27;;;15.40;;
9729;SDS011;4904;49.152;11.004;2022-12-18T04:59:57;28.40;;;15.47;;
9729;SDS011;4904;49.152;11.004;2022-12-18T05:02:24;28.23;;;15.63;;
9729;SDS011;4904;49.152;11.004;2022-12-18T05:04:50;25.97;;;14.83;;
9729;SDS011;4904;49.152;11.004;2022-12-18T05:07:18;26.07;;;14.73;;
9729;SDS011;4904;49.152;11.004;2022-12-18T05:09:45;24.23;;;14.43;;
9729;SDS011;4904;49.152;11.004;2022-12-18T05:12:12;25.23;;;13.47;;
9729;SDS011;4904;49.152;11.004;2022-12-18T05:14:39;26.57;;;14.03;;
9729;SDS011;4904;49.152;11.004;2022-12-18T05:17:06;27.93;;;14.17;;
9729;SDS011;4904;49.152;11.004;2022-12-18T05:19:33;28.47;;;14.47;;
9729;SDS011;4904;49.152;11.004;2022-12-18T05:22:00;28.63;;;14.43;;
9729;SDS011;4904;49.152;11.004;2022-12-18T05:24:28;26.27;;;14.17;;
9729;SDS011;4904;49.152;11.004;2022-12-18T05:26:55;24.80;;;14.57;;
9729;SDS011;4904;49.152;11.004;2022-12-18T05:29:22;28.03;;;14.57;;
9729;SDS011;4904;49.152;11.004;2022-12-18T05:31:49;25.77;;;13.73;;
9729;SDS011;4904;49.152;11.004;2022-12-18T05:34:16;25.67;;;14.53;;
9729;SDS011;4904;49.152;11.004;2022-12-18T05:36:42;26.97;;;14.07;;
9729;SDS011;4904;49.152;11.004;2022-12-18T05:39:09;28.07;;;14.53;;
9729;SDS011;4904;49.152;11.004;2022-12-18T05:41:37;27.30;;;15.03;;
9729;SDS011;4904;49.152;11.004;2022-12-18T05:44:04;28.30;;;14.73;;
9729;SDS011;4904;49.152;11.004;2022-12-18T05:46:31;26.73;;;14.30;;
9729;SDS011;4904;49.152;11.004;2022-12-18T05:48:58;25.17;;;14.67;;
9729;SDS011;4904;49.152;11.004;2022-12-18T05:51:26;26.10;;;13.87;;
9729;SDS011;4904;49.152;11.004;2022-12-18T05:53:53;26.60;;;14.20;;
9729;SDS011;4904;49.152;11.004;2022-12-18T05:56:20;27.57;;;14.10;;
9729;SDS011;4904;49.152;11.004;2022-12-18T05:58:52;25.33;;;13.77;;
9729;SDS011;4904;49.152;11.004;2022-12-18T06:01:20;26.53;;;13.70;;
9729;SDS011;4904;49.152;11.004;2022-12-18T06:03:49;27.37;;;15.10;;
9729;SDS011;4904;49.152;11.004;2022-12-18T06:06:17;26.63;;;15.00;;
9729;SDS011;4904;49.152;11.004;2022-12-18T06:08:45;25.87;;;14.83;;
9729;SDS011;4904;49.152;11.004;2022-12-18T06:11:15;26.13;;;14.27;;
9729;SDS011;4904;49.152;11.004;2022-12-18T06:13:43;26.87;;;14.83;;
9729;SDS011;4904;49.152;11.004;2022-12-18T06:16:12;24.90;;;13.43;;
9729;SDS011;4904;49.152;11.004;2022-12-18T06:18:39;26.70;;;14.97;;
9729;SDS011;4904;49.152;11.004;2022-12-18T06:21:06;26.93;;;14.27;;
9729;SDS011;4904;49.152;11.004;2022-12-18T06:23:33;23.63;;;13.80;;
9729;SDS011;4904;49.152;11.004;2022-12-18T06:26:03;30.33;;;15.77;;
9729;SDS011;4904;49.152;11.004;2022-12-18T06:28:30;25.47;;;14.13;;
9729;SDS011;4904;49.152;11.004;2022-12-18T06:30:57;29.20;;;14.97;;
9729;SDS011;4904;49.152;11.004;2022-12-18T06:33:27;28.77;;;14.43;;
9729;SDS011;4904;49.152;11.004;2022-12-18T06:35:54;26.70;;;14.73;;
9729;SDS011;4904;49.152;11.004;2022-12-18T06:38:25;26.17;;;14.73;;
9729;SDS011;4904;49.152;11.004;2022-12-18T06:40:52;30.50;;;16.13;;
9729;SDS011;4904;49.152;11.004;2022-12-18T06:43:19;30.83;;;17.37;;
9729;SDS011;4904;49.152;11.004;2022-12-18T06:45:45;30.57;;;15.57;;
9729;SDS011;4904;49.152;11.004;2022-12-18T06:48:17;28.30;;;14.03;;
9729;SDS011;4904;49.152;11.004;2022-12-18T06:50:45;29.30;;;15.20;;
9729;SDS011;4904;49.152;11.004;2022-12-18T06:53:12;27.03;;;15.53;;
9729;SDS011;4904;49.152;11.004;2022-12-18T06:55:39;26.77;;;14.60;;
9729;SDS011;4904;49.152;11.004;2022-12-18T06:58:06;25.17;;;14.03;;
9729;SDS011;4904;49.152;11.004;2022-12-18T07:00:33;26.43;;;14.43;;
9729;SDS011;4904;49.152;11.004;2022-12-18T07:03:00;27.13;;;14.40;;
9729;SDS011;4904;49.152;11.004;2022-12-18T07:05:27;25.03;;;14.03;;
9729;SDS011;4904;49.152;11.004;2022-12-18T07:07:55;29.20;;;14.80;;
9729;SDS011;4904;49.152;11.004;2022-12-18T07:10:22;26.57;;;15.10;;
9729;SDS011;4904;49.152;11.004;2022-12-18T07:12:49;25.23;;;14.07;;
9729;SDS011;4904;49.152;11.004;2022-12-18T07:15:16;21.37;;;13.47;;
9729;SDS011;4904;49.152;11.004;2022-12-18T07:17:42;27.90;;;14.87;;
9729;SDS011;4904;49.152;11.004;2022-12-18T07:20:09;24.77;;;14.17;;
9729;SDS011;4904;49.152;11.004;2022-12-18T07:22:37;26.07;;;13.60;;
9729;SDS011;4904;49.152;11.004;2022-12-18T07:25:06;24.80;;;13.63;;
9729;SDS011;4904;49.152;11.004;2022-12-18T07:27:33;26.83;;;14.07;;
9729;SDS011;4904;49.152;11.004;2022-12-18T07:30:00;23.93;;;13.20;;
9729;SDS011;4904;49.152;11.004;2022-12-18T07:32:27;28.63;;;14.77;;
9729;SDS011;4904;49.152;11.004;2022-12-18T07:34:54;27.03;;;14.53;;
9729;SDS011;4904;49.152;11.004;2022-12-18T07:37:21;25.33;;;13.80;;
9729;SDS011;4904;49.152;11.004;2022-12-18T07:39:48;25.77;;;13.70;;
9729;SDS011;4904;49.152;11.004;2022-12-18T07:42:16;23.63;;;14.03;;
9729;SDS011;4904;49.152;11.004;2022-12-18T07:44:58;25.40;;;14.37;;
9729;SDS011;4904;49.152;11.004;2022-12-18T07:47:25;24.60;;;13.47;;
9729;SDS011;4904;49.152;11.004;2022-12-18T07:49:52;29.30;;;14.40;;
9729;SDS011;4904;49.152;11.004;2022-12-18T07:52:19;27.93;;;14.47;;
9729;SDS011;4904;49.152;11.004;2022-12-18T07:54:46;25.17;;;13.93;;
9729;SDS011;4904;49.152;11.004;2022-12-18T07:57:15;24.60;;;13.90;;
9729;SDS011;4904;49.152;11.004;2022-12-18T07:59:42;25.30;;;15.10;;
9729;SDS011;4904;49.152;11.004;2022-12-18T08:02:09;24.23;;;13.83;;
9729;SDS011;4904;49.152;11.004;2022-12-18T08:04:36;24.20;;;13.87;;
9729;SDS011;4904;49.152;11.004;2022-12-18T08:07:03;24.90;;;13.77;;
9729;SDS011;4904;49.152;11.004;2022-12-18T08:09:30;26.20;;;13.93;;
9729;SDS011;4904;49.152;11.004;2022-12-18T08:11:57;25.43;;;14.40;;
9729;SDS011;4904;49.152;11.004;2022-12-18T08:14:25;27.47;;;15.43;;
9729;SDS011;4904;49.152;11.004;2022-12-18T08:16:52;24.23;;;14.00;;
9729;SDS011;4904;49.152;11.004;2022-12-18T08:19:18;21.90;;;12.17;;
9729;SDS011;4904;49.152;11.004;2022-12-18T08:21:45;24.77;;;14.27;;
9729;SDS011;4904;49.152;11.004;2022-12-18T08:24:12;24.67;;;13.77;;
9729;SDS011;4904;49.152;11.004;2022-12-18T08:26:39;23.50;;;13.10;;
9729;SDS011;4904;49.152;11.004;2022-12-18T08:29:05;26.07;;;13.93;;
9729;SDS011;4904;49.152;11.004;2022-12-18T08:31:34;24.43;;;13.50;;
9729;SDS011;4904;49.152;11.004;2022-12-18T08:34:01;25.33;;;14.03;;
9729;SDS011;4904;49.152;11.004;2022-12-18T08:36:28;26.37;;;14.20;;
9729;SDS011;4904;49.152;11.004;2022-12-18T08:38:54;27.73;;;14.80;;
9729;SDS011;4904;49.152;11.004;2022-12-18T08:41:22;24.10;;;13.30;;
9729;SDS011;4904;49.152;11.004;2022-12-18T08:43:49;25.23;;;13.60;;
9729;SDS011;4904;49.152;11.004;2022-12-18T08:46:36;27.60;;;14.00;;
9729;SDS011;4904;49.152;11.004;2022-12-18T08:49:04;24.77;;;13.20;;
9729;SDS011;4904;49.152;11.004;2022-12-18T08:51:31;22.23;;;12.63;;
9729;SDS011;4904;49.152;11.004;2022-12-18T08:53:58;23.47;;;13.97;;
9729;SDS011;4904;49.152;11.004;2022-12-18T08:56:25;22.83;;;13.00;;
9729;SDS011;4904;49.152;11.004;2022-12-18T08:58:52;24.37;;;13.27;;
9729;SDS011;4904;49.152;11.004;2022-12-18T09:01:20;24.20;;;13.53;;
9729;SDS011;4904;49.152;11.004;2022-12-18T09:03:49;24.40;;;13.43;;
9729;SDS011;4904;49.152;11.004;2022-12-18T09:06:17;22.90;;;13.30;;
9729;SDS011;4904;49.152;11.004;2022-12-18T09:08:47;21.57;;;12.73;;
9729;SDS011;4904;49.152;11.004;2022-12-18T09:11:15;24.47;;;13.37;;
9729;SDS011;4904;49.152;11.004;2022-12-18T09:13:46;23.37;;;13.60;;
9729;SDS011;4904;49.152;11.004;2022-12-18T09:16:13;22.77;;;12.77;;
9729;SDS011;4904;49.152;11.004;2022-12-18T09:18:39;22.03;;;13.20;;
9729;SDS011;4904;49.152;11.004;2022-12-18T09:21:12;23.30;;;13.77;;
9729;SDS011;4904;49.152;11.004;2022-12-18T09:23:40;23.93;;;13.60;;
9729;SDS011;4904;49.152;11.004;2022-12-18T09:26:07;23.80;;;13.83;;
9729;SDS011;4904;49.152;11.004;2022-12-18T09:28:34;22.40;;;13.00;;
9729;SDS011;4904;49.152;11.004;2022-12-18T09:31:03;24.10;;;13.63;;
9729;SDS011;4904;49.152;11.004;2022-12-18T09:33:31;23.23;;;13.27;;
9729;SDS011;4904;49.152;11.004;2022-12-18T09:36:00;22.90;;;12.57;;
9729;SDS011;4904;49.152;11.004;2022-12-18T09:38:29;26.60;;;14.30;;
9729;SDS011;4904;49.152;11.004;2022-12-18T09:40:57;22.43;;;12.80;;
9729;SDS011;4904;49.152;11.004;2022-12-18T09:43:28;21.73;;;13.47;;
9729;SDS011;4904;49.152;11.004;2022-12-18T09:46:01;21.97;;;12.13;;
9729;SDS011;4904;49.152;11.004;2022-12-18T09:48:33;23.67;;;13.00;;
9729;SDS011;4904;49.152;11.004;2022-12-18T09:51:05;24.43;;;14.07;;
9729;SDS011;4904;49.152;11.004;2022-12-18T09:53:39;22.73;;;12.57;;
9729;SDS011;4904;49.152;11.004;2022-12-18T09:56:10;22.90;;;13.27;;
9729;SDS011;4904;49.152;11.004;2022-12-18T09:58:43;22.07;;;12.97;;
9729;SDS011;4904;49.152;11.004;2022-12-18T10:01:15;24.43;;;13.40;;
9729;SDS011;4904;49.152;11.004;2022-12-18T10:03:47;21.03;;;13.00;;
9729;SDS011;4904;49.152;11.004;2022-12-18T10:06:15;24.47;;;14.00;;
9729;SDS011;4904;49.152;11.004;2022-12-18T10:08:51;50.67;;;29.30;;
9729;SDS011;4904;49.152;11.004;2022-12-18T10:11:27;25.00;;;14.80;;
9729;SDS011;4904;49.152;11.004;2022-12-18T10:14:05;21.53;;;12.53;;
9729;SDS011;4904;49.152;11.004;2022-12-18T10:16:39;26.23;;;14.60;;
9729;SDS011;4904;49.152;11.004;2022-12-18T10:19:18;23.83;;;13.77;;
9729;SDS011;4904;49.152;11.004;2022-12-18T10:21:55;21.60;;;13.43;;
9729;SDS011;4904;49.152;11.004;2022-12-18T10:24:30;20.90;;;13.30;;
9729;SDS011;4904;49.152;11.004;2022-12-18T10:27:09;21.47;;;12.80;;
9729;SDS011;4904;49.152;11.004;2022-12-18T10:29:40;22.20;;;13.90;;
9729;SDS011;4904;49.152;11.004;2022-12-18T10:32:09;25.07;;;13.40;;
9729;SDS011;4904;49.152;11.004;2022-12-18T10:34:41;23.90;;;12.87;;
9729;SDS011;4904;49.152;11.004;2022-12-18T10:37:12;22.83;;;12.17;;
9729;SDS011;4904;49.152;11.004;2022-12-18T10:39:44;18.73;;;11.83;;
9729;SDS011;4904;49.152;11.004;2022-12-18T10:42:15;20.50;;;12.63;;
9729;SDS011;4904;49.152;11.004;2022-12-18T10:44:43;20.23;;;12.63;;
9729;SDS011;4904;49.152;11.004;2022-12-18T10:47:11;21.00;;;12.60;;
9729;SDS011;4904;49.152;11.004;2022-12-18T10:49:42;22.37;;;12.70;;
9729;SDS011;4904;49.152;11.004;2022-12-18T10:52:15;19.60;;;11.93;;
9729;SDS011;4904;49.152;11.004;2022-12-18T10:54:49;23.77;;;13.17;;
9729;SDS011;4904;49.152;11.004;2022-12-18T10:57:29;21.07;;;12.07;;
9729;SDS011;4904;49.152;11.004;2022-12-18T10:59:59;21.10;;;12.77;;
9729;SDS011;4904;49.152;11.004;2022-12-18T11:02:40;53.53;;;37.43;;
9729;SDS011;4904;49.152;11.004;2022-12-18T11:07:50;20.03;;;12.83;;
9729;SDS011;4904;49.152;11.004;2022-12-18T11:10:21;21.17;;;12.43;;
9729;SDS011;4904;49.152;11.004;2022-12-18T11:12:49;19.57;;;12.03;;
9729;SDS011;4904;49.152;11.004;2022-12-18T11:15:18;17.93;;;12.07;;
9729;SDS011;4904;49.152;11.004;2022-12-18T11:17:47;19.93;;;12.20;;
9729;SDS011;4904;49.152;11.004;2022-12-18T11:20:20;16.67;;;11.50;;
9729;SDS011;4904;49.152;11.004;2022-12-18T11:22:55;20.97;;;14.07;;
9729;SDS011;4904;49.152;11.004;2022-12-18T11:25:28;23.57;;;12.87;;
9729;SDS011;4904;49.152;11.004;2022-12-18T11:27:56;19.23;;;11.77;;
9729;SDS011;4904;49.152;11.004;2022-12-18T11:30:25;21.13;;;13.07;;
9729;SDS011;4904;49.152;11.004;2022-12-18T11:32:55;20.97;;;13.10;;
9729;SDS011;4904;49.152;11.004;2022-12-18T11:35:33;19.73;;;12.93;;
9729;SDS011;4904;49.152;11.004;2022-12-18T11:38:06;21.57;;;12.90;;
9729;SDS011;4904;49.152;11.004;2022-12-18T11:40:44;22.60;;;13.80;;
9729;SDS011;4904;49.152;11.004;2022-12-18T11:43:17;19.97;;;13.40;;
9729;SDS011;4904;49.152;11.004;2022-12-18T11:45:50;19.97;;;12.23;;
9729;SDS011;4904;49.152;11.004;2022-12-18T11:48:22;23.77;;;13.57;;
9729;SDS011;4904;49.152;11.004;2022-12-18T11:50:53;20.57;;;12.43;;
9729;SDS011;4904;49.152;11.004;2022-12-18T11:53:21;20.90;;;12.47;;
9729;SDS011;4904;49.152;11.004;2022-12-18T11:56:00;22.33;;;13.53;;
9729;SDS011;4904;49.152;11.004;2022-12-18T11:58:38;19.23;;;12.77;;
9729;SDS011;4904;49.152;11.004;2022-12-18T12:01:13;22.50;;;12.93;;
9729;SDS011;4904;49.152;11.004;2022-12-18T12:03:54;21.07;;;12.83;;
9729;SDS011;4904;49.152;11.004;2022-12-18T12:06:38;20.80;;;13.03;;
9729;SDS011;4904;49.152;11.004;2022-12-18T12:09:14;20.73;;;13.27;;
9729;SDS011;4904;49.152;11.004;2022-12-18T12:11:53;20.73;;;13.50;;
9729;SDS011;4904;49.152;11.004;2022-12-18T12:14:37;23.17;;;12.73;;
9729;SDS011;4904;49.152;11.004;2022-12-18T12:17:20;23.80;;;13.47;;
9729;SDS011;4904;49.152;11.004;2022-12-18T12:19:56;23.13;;;14.20;;
9729;SDS011;4904;49.152;11.004;2022-12-18T12:22:30;20.83;;;13.00;;
9729;SDS011;4904;49.152;11.004;2022-12-18T12:25:08;24.37;;;13.80;;
9729;SDS011;4904;49.152;11.004;2022-12-18T12:27:48;22.23;;;13.33;;
9729;SDS011;4904;49.152;11.004;2022-12-18T12:30:26;23.60;;;13.27;;
9729;SDS011;4904;49.152;11.004;2022-12-18T12:33:04;23.83;;;13.17;;
9729;SDS011;4904;49.152;11.004;2022-12-18T12:35:47;22.00;;;13.00;;
9729;SDS011;4904;49.152;11.004;2022-12-18T12:38:19;20.77;;;12.87;;
9729;SDS011;4904;49.152;11.004;2022-12-18T12:40:51;22.47;;;13.63;;
9729;SDS011;4904;49.152;11.004;2022-12-18T12:43:25;20.53;;;12.47;;
9729;SDS011;4904;49.152;11.004;2022-12-18T12:46:03;20.27;;;12.83;;
9729;SDS011;4904;49.152;11.004;2022-12-18T12:48:36;23.03;;;13.60;;
9729;SDS011;4904;49.152;11.004;2022-12-18T12:51:08;24.23;;;13.67;;
9729;SDS011;4904;49.152;11.004;2022-12-18T12:53:39;20.03;;;12.87;;
9729;SDS011;4904;49.152;11.004;2022-12-18T12:56:07;24.00;;;13.50;;
9729;SDS011;4904;49.152;11.004;2022-12-18T12:58:41;20.83;;;13.77;;
9729;SDS011;4904;49.152;11.004;2022-12-18T13:01:16;21.13;;;13.20;;
9729;SDS011;4904;49.152;11.004;2022-12-18T13:03:51;21.60;;;13.10;;
9729;SDS011;4904;49.152;11.004;2022-12-18T13:06:27;21.60;;;14.10;;
9729;SDS011;4904;49.152;11.004;2022-12-18T13:08:59;22.17;;;13.37;;
9729;SDS011;4904;49.152;11.004;2022-12-18T13:11:32;22.37;;;14.07;;
9729;SDS011;4904;49.152;11.004;2022-12-18T13:14:21;24.00;;;14.33;;
9729;SDS011;4904;49.152;11.004;2022-12-18T13:16:52;24.83;;;14.70;;
9729;SDS011;4904;49.152;11.004;2022-12-18T13:20:04;24.23;;;15.40;;
9729;SDS011;4904;49.152;11.004;2022-12-18T13:22:39;23.10;;;14.10;;
9729;SDS011;4904;49.152;11.004;2022-12-18T13:25:26;23.70;;;14.47;;
9729;SDS011;4904;49.152;11.004;2022-12-18T13:28:03;22.63;;;14.47;;
9729;SDS011;4904;49.152;11.004;2022-12-18T13:30:45;22.23;;;14.43;;
9729;SDS011;4904;49.152;11.004;2022-12-18T13:33:30;24.83;;;15.27;;
9729;SDS011;4904;49.152;11.004;2022-12-18T13:36:13;24.83;;;15.57;;
9729;SDS011;4904;49.152;11.004;2022-12-18T13:41:48;21.90;;;13.33;;
9729;SDS011;4904;49.152;11.004;2022-12-18T13:44:23;21.13;;;13.30;;
9729;SDS011;4904;49.152;11.004;2022-12-18T13:46:55;24.07;;;13.63;;
9729;SDS011;4904;49.152;11.004;2022-12-18T13:49:23;21.43;;;13.47;;
9729;SDS011;4904;49.152;11.004;2022-12-18T13:51:53;21.77;;;13.43;;
9729;SDS011;4904;49.152;11.004;2022-12-18T13:54:23;24.50;;;14.20;;
9729;SDS011;4904;49.152;11.004;2022-12-18T13:56:55;22.33;;;14.80;;
9729;SDS011;4904;49.152;11.004;2022-12-18T13:59:22;22.23;;;13.83;;
9729;SDS011;4904;49.152;11.004;2022-12-18T14:01:51;24.73;;;14.97;;
9729;SDS011;4904;49.152;11.004;2022-12-18T14:04:25;23.40;;;13.70;;
9729;SDS011;4904;49.152;11.004;2022-12-18T14:06:55;21.90;;;13.67;;
9729;SDS011;4904;49.152;11.004;2022-12-18T14:09:26;24.37;;;14.27;;
9729;SDS011;4904;49.152;11.004;2022-12-18T14:11:55;21.23;;;13.53;;
9729;SDS011;4904;49.152;11.004;2022-12-18T14:14:37;22.37;;;14.13;;
9729;SDS011;4904;49.152;11.004;2022-12-18T14:17:08;23.63;;;14.67;;
9729;SDS011;4904;49.152;11.004;2022-12-18T14:19:37;24.37;;;14.33;;
9729;SDS011;4904;49.152;11.004;2022-12-18T14:22:11;26.17;;;15.07;;
9729;SDS011;4904;49.152;11.004;2022-12-18T14:24:41;24.83;;;13.67;;
9729;SDS011;4904;49.152;11.004;2022-12-18T14:27:12;21.47;;;14.00;;
9729;SDS011;4904;49.152;11.004;2022-12-18T14:29:46;19.70;;;13.47;;
9729;SDS011;4904;49.152;11.004;2022-12-18T14:32:14;21.37;;;12.97;;
9729;SDS011;4904;49.152;11.004;2022-12-18T14:34:44;21.83;;;13.67;;
9729;SDS011;4904;49.152;11.004;2022-12-18T14:37:13;23.47;;;13.80;;
9729;SDS011;4904;49.152;11.004;2022-12-18T14:39:40;24.33;;;13.60;;
9729;SDS011;4904;49.152;11.004;2022-12-18T14:42:18;21.80;;;13.37;;
9729;SDS011;4904;49.152;11.004;2022-12-18T14:44:45;22.00;;;13.27;;
9729;SDS011;4904;49.152;11.004;2022-12-18T14:47:13;21.77;;;13.37;;
9729;SDS011;4904;49.152;11.004;2022-12-18T14:49:41;22.83;;;13.37;;
9729;SDS011;4904;49.152;11.004;2022-12-18T14:52:17;22.13;;;13.53;;
9729;SDS011;4904;49.152;11.004;2022-12-18T14:54:48;21.70;;;13.57;;
9729;SDS011;4904;49.152;11.004;2022-12-18T14:57:18;21.90;;;13.40;;
9729;SDS011;4904;49.152;11.004;2022-12-18T14:59:48;23.80;;;14.10;;